sensor_id;sensor_type;location;lat;lon;timestamp;temperature;humidity
7784;DHT22;19359;51.402;6.778;2023-08-07T00:04:02;13.20;1.00
7784;DHT22;19359;51.402;6.778;2023-08-07T00:06:29;13.30;1.00
7784;DHT22;19359;51.402;6.778;2023-08-07T00:08:56;13.20;1.00
7784;DHT22;19359;51.402;6.778;2023-08-07T00:11:24;13.30;1.00
7784;DHT22;19359;51.402;6.778;2023-08-07T00:16:18;13.40;1.00
7784;DHT22;19359;51.402;6.778;2023-08-07T00:18:44;13.30;1.00
7784;DHT22;19359;51.402;6.778;2023-08-07T00:26:05;13.40;1.00
7784;DHT22;19359;51.402;6.778;2023-08-07T00:28:33;13.30;1.00
7784;DHT22;19359;51.402;6.778;2023-08-07T00:31:00;13.40;1.00
7784;DHT22;19359;51.402;6.778;2023-08-07T00:33:27;13.30;1.00
7784;DHT22;19359;51.402;6.778;2023-08-07T00:38:21;13.80;1.00
7784;DHT22;19359;51.402;6.778;2023-08-07T00:40:48;13.50;1.00
7784;DHT22;19359;51.402;6.778;2023-08-07T00:43:14;13.40;99.90
7784;DHT22;19359;51.402;6.778;2023-08-07T00:45:45;13.40;1.00
7784;DHT22;19359;51.402;6.778;2023-08-07T00:48:13;13.30;5.00
7784;DHT22;19359;51.402;6.778;2023-08-07T00:50:42;13.40;99.90
7784;DHT22;19359;51.402;6.778;2023-08-07T00:53:09;13.40;99.90
7784;DHT22;19359;51.402;6.778;2023-08-07T00:58:03;13.50;99.90
7784;DHT22;19359;51.402;6.778;2023-08-07T01:00:30;13.40;99.90
7784;DHT22;19359;51.402;6.778;2023-08-07T01:02:59;13.40;99.90
7784;DHT22;19359;51.402;6.778;2023-08-07T01:07:54;13.50;99.90
7784;DHT22;19359;51.402;6.778;2023-08-07T01:10:28;13.30;99.90
7784;DHT22;19359;51.402;6.778;2023-08-07T01:13:02;13.30;99.90
7784;DHT22;19359;51.402;6.778;2023-08-07T01:15:32;13.30;99.90
7784;DHT22;19359;51.402;6.778;2023-08-07T01:18:01;13.20;99.90
7784;DHT22;19359;51.402;6.778;2023-08-07T01:20:30;13.10;99.90
7784;DHT22;19359;51.402;6.778;2023-08-07T01:25:24;13.20;1.00
7784;DHT22;19359;51.402;6.778;2023-08-07T01:30:28;13.30;1.00
7784;DHT22;19359;51.402;6.778;2023-08-07T01:33:01;13.20;1.00
7784;DHT22;19359;51.402;6.778;2023-08-07T01:35:34;13.20;1.00
7784;DHT22;19359;51.402;6.778;2023-08-07T01:40:30;13.20;1.00
7784;DHT22;19359;51.402;6.778;2023-08-07T01:45:26;13.20;1.00
7784;DHT22;19359;51.402;6.778;2023-08-07T01:47:54;13.20;1.00
7784;DHT22;19359;51.402;6.778;2023-08-07T01:50:21;13.20;1.00
7784;DHT22;19359;51.402;6.778;2023-08-07T01:52:48;13.10;1.00
7784;DHT22;19359;51.402;6.778;2023-08-07T02:00:11;12.90;1.00
7784;DHT22;19359;51.402;6.778;2023-08-07T02:02:38;13.20;1.00
7784;DHT22;19359;51.402;6.778;2023-08-07T02:05:05;13.10;1.00
7784;DHT22;19359;51.402;6.778;2023-08-07T02:07:32;13.00;1.00
7784;DHT22;19359;51.402;6.778;2023-08-07T02:10:00;13.10;1.00
7784;DHT22;19359;51.402;6.778;2023-08-07T02:12:28;13.00;1.00
7784;DHT22;19359;51.402;6.778;2023-08-07T02:14:57;13.10;1.00
7784;DHT22;19359;51.402;6.778;2023-08-07T02:17:25;13.10;1.00
7784;DHT22;19359;51.402;6.778;2023-08-07T02:19:52;13.00;1.00
7784;DHT22;19359;51.402;6.778;2023-08-07T02:22:19;12.90;1.00
7784;DHT22;19359;51.402;6.778;2023-08-07T02:24:45;13.00;1.00
7784;DHT22;19359;51.402;6.778;2023-08-07T02:29:41;13.00;1.00
7784;DHT22;19359;51.402;6.778;2023-08-07T02:34:35;12.90;1.00
7784;DHT22;19359;51.402;6.778;2023-08-07T02:39:29;12.80;1.00
7784;DHT22;19359;51.402;6.778;2023-08-07T02:41:55;12.90;1.00
7784;DHT22;19359;51.402;6.778;2023-08-07T02:44:22;12.90;1.00
7784;DHT22;19359;51.402;6.778;2023-08-07T02:46:50;12.90;1.00
7784;DHT22;19359;51.402;6.778;2023-08-07T02:51:44;12.90;1.00
7784;DHT22;19359;51.402;6.778;2023-08-07T02:54:11;12.90;1.00
7784;DHT22;19359;51.402;6.778;2023-08-07T02:59:05;12.90;1.00
7784;DHT22;19359;51.402;6.778;2023-08-07T03:01:31;13.00;1.00
7784;DHT22;19359;51.402;6.778;2023-08-07T03:04:00;12.90;1.00
7784;DHT22;19359;51.402;6.778;2023-08-07T03:06:26;12.90;1.00
7784;DHT22;19359;51.402;6.778;2023-08-07T03:08:53;13.00;14.90
7784;DHT22;19359;51.402;6.778;2023-08-07T03:11:20;12.90;58.80
7784;DHT22;19359;51.402;6.778;2023-08-07T03:16:14;12.90;1.00
7784;DHT22;19359;51.402;6.778;2023-08-07T03:18:41;12.90;1.00
7784;DHT22;19359;51.402;6.778;2023-08-07T03:21:09;13.00;1.00
7784;DHT22;19359;51.402;6.778;2023-08-07T03:23:36;13.00;99.90
7784;DHT22;19359;51.402;6.778;2023-08-07T03:26:03;13.30;1.00
7784;DHT22;19359;51.402;6.778;2023-08-07T03:28:30;13.10;99.90
7784;DHT22;19359;51.402;6.778;2023-08-07T03:33:24;13.00;1.00
7784;DHT22;19359;51.402;6.778;2023-08-07T03:35:51;13.10;1.00
7784;DHT22;19359;51.402;6.778;2023-08-07T03:38:19;13.10;1.00
7784;DHT22;19359;51.402;6.778;2023-08-07T03:43:13;13.10;99.90
7784;DHT22;19359;51.402;6.778;2023-08-07T03:45:40;13.00;47.20
7784;DHT22;19359;51.402;6.778;2023-08-07T03:50:34;13.10;1.00
7784;DHT22;19359;51.402;6.778;2023-08-07T03:53:03;12.90;1.00
7784;DHT22;19359;51.402;6.778;2023-08-07T03:55:31;13.10;99.90
7784;DHT22;19359;51.402;6.778;2023-08-07T04:00:25;13.00;99.90
7784;DHT22;19359;51.402;6.778;2023-08-07T04:02:52;13.20;83.70
7784;DHT22;19359;51.402;6.778;2023-08-07T04:05:18;13.10;99.90
7784;DHT22;19359;51.402;6.778;2023-08-07T04:07:45;13.10;27.50
7784;DHT22;19359;51.402;6.778;2023-08-07T04:15:08;13.30;86.00
7784;DHT22;19359;51.402;6.778;2023-08-07T04:17:35;13.00;8.00
7784;DHT22;19359;51.402;6.778;2023-08-07T04:20:03;13.00;1.00
7784;DHT22;19359;51.402;6.778;2023-08-07T04:24:58;13.10;99.40
7784;DHT22;19359;51.402;6.778;2023-08-07T04:27:25;13.10;99.90
7784;DHT22;19359;51.402;6.778;2023-08-07T04:29:54;13.10;3.20
7784;DHT22;19359;51.402;6.778;2023-08-07T04:32:20;13.10;99.90
7784;DHT22;19359;51.402;6.778;2023-08-07T04:37:14;13.10;99.90
7784;DHT22;19359;51.402;6.778;2023-08-07T04:39:41;13.10;99.90
7784;DHT22;19359;51.402;6.778;2023-08-07T04:47:04;13.20;1.00
7784;DHT22;19359;51.402;6.778;2023-08-07T04:54:25;13.20;1.00
7784;DHT22;19359;51.402;6.778;2023-08-07T04:56:52;13.20;1.00
7784;DHT22;19359;51.402;6.778;2023-08-07T05:01:46;13.20;1.00
7784;DHT22;19359;51.402;6.778;2023-08-07T05:04:14;13.10;1.00
7784;DHT22;19359;51.402;6.778;2023-08-07T05:06:41;13.10;1.00
7784;DHT22;19359;51.402;6.778;2023-08-07T05:09:08;13.00;1.00
7784;DHT22;19359;51.402;6.778;2023-08-07T05:14:02;13.10;1.00
7784;DHT22;19359;51.402;6.778;2023-08-07T05:18:56;13.20;1.00
7784;DHT22;19359;51.402;6.778;2023-08-07T05:21:24;13.10;1.00
7784;DHT22;19359;51.402;6.778;2023-08-07T05:23:51;13.00;1.00
7784;DHT22;19359;51.402;6.778;2023-08-07T05:26:21;12.90;1.00
7784;DHT22;19359;51.402;6.778;2023-08-07T05:28:48;12.80;18.20
7784;DHT22;19359;51.402;6.778;2023-08-07T05:33:42;12.90;1.00
7784;DHT22;19359;51.402;6.778;2023-08-07T05:36:08;13.00;1.00
7784;DHT22;19359;51.402;6.778;2023-08-07T05:38:36;12.90;1.00
7784;DHT22;19359;51.402;6.778;2023-08-07T05:41:03;13.10;1.00
7784;DHT22;19359;51.402;6.778;2023-08-07T05:43:30;12.80;1.00
7784;DHT22;19359;51.402;6.778;2023-08-07T05:45:57;12.90;1.00
7784;DHT22;19359;51.402;6.778;2023-08-07T05:48:23;13.00;1.00
7784;DHT22;19359;51.402;6.778;2023-08-07T05:50:51;13.00;1.00
7784;DHT22;19359;51.402;6.778;2023-08-07T05:53:18;13.00;1.00
7784;DHT22;19359;51.402;6.778;2023-08-07T05:55:46;13.00;1.00
7784;DHT22;19359;51.402;6.778;2023-08-07T05:58:13;12.80;1.00
7784;DHT22;19359;51.402;6.778;2023-08-07T06:00:39;12.70;1.00
7784;DHT22;19359;51.402;6.778;2023-08-07T06:03:06;12.90;1.00
7784;DHT22;19359;51.402;6.778;2023-08-07T06:05:34;12.90;99.90
7784;DHT22;19359;51.402;6.778;2023-08-07T06:08:01;12.90;1.00
7784;DHT22;19359;51.402;6.778;2023-08-07T06:10:27;13.00;1.00
7784;DHT22;19359;51.402;6.778;2023-08-07T06:12:56;13.10;1.00
7784;DHT22;19359;51.402;6.778;2023-08-07T06:15:22;13.00;1.00
7784;DHT22;19359;51.402;6.778;2023-08-07T06:17:49;13.00;1.00
7784;DHT22;19359;51.402;6.778;2023-08-07T06:20:19;13.00;1.00
7784;DHT22;19359;51.402;6.778;2023-08-07T06:22:46;13.10;99.90
7784;DHT22;19359;51.402;6.778;2023-08-07T06:30:10;13.30;1.00
7784;DHT22;19359;51.402;6.778;2023-08-07T06:32:36;13.50;1.00
7784;DHT22;19359;51.402;6.778;2023-08-07T06:35:04;13.20;1.00
7784;DHT22;19359;51.402;6.778;2023-08-07T06:37:31;13.30;1.00
7784;DHT22;19359;51.402;6.778;2023-08-07T06:39:58;13.60;1.00
7784;DHT22;19359;51.402;6.778;2023-08-07T06:47:20;12.90;1.00
7784;DHT22;19359;51.402;6.778;2023-08-07T06:49:47;13.20;1.00
7784;DHT22;19359;51.402;6.778;2023-08-07T06:52:13;13.30;1.00
7784;DHT22;19359;51.402;6.778;2023-08-07T06:54:40;13.20;1.00
7784;DHT22;19359;51.402;6.778;2023-08-07T07:04:30;13.30;96.60
7784;DHT22;19359;51.402;6.778;2023-08-07T07:06:56;13.40;99.90
7784;DHT22;19359;51.402;6.778;2023-08-07T07:09:23;13.30;99.90
7784;DHT22;19359;51.402;6.778;2023-08-07T07:11:50;13.30;99.90
7784;DHT22;19359;51.402;6.778;2023-08-07T07:14:17;13.20;99.90
7784;DHT22;19359;51.402;6.778;2023-08-07T07:16:43;13.20;99.90
7784;DHT22;19359;51.402;6.778;2023-08-07T07:19:10;13.30;99.90
7784;DHT22;19359;51.402;6.778;2023-08-07T07:21:38;13.30;99.90
7784;DHT22;19359;51.402;6.778;2023-08-07T07:24:05;13.30;99.90
7784;DHT22;19359;51.402;6.778;2023-08-07T07:26:32;13.40;99.90
7784;DHT22;19359;51.402;6.778;2023-08-07T07:28:59;13.40;99.90
7784;DHT22;19359;51.402;6.778;2023-08-07T07:31:25;13.30;99.90
7784;DHT22;19359;51.402;6.778;2023-08-07T07:33:52;13.20;1.00
7784;DHT22;19359;51.402;6.778;2023-08-07T07:36:19;13.40;99.90
7784;DHT22;19359;51.402;6.778;2023-08-07T07:41:15;13.30;99.90
7784;DHT22;19359;51.402;6.778;2023-08-07T07:43:43;13.50;99.90
7784;DHT22;19359;51.402;6.778;2023-08-07T07:46:10;13.30;99.90
7784;DHT22;19359;51.402;6.778;2023-08-07T07:48:36;13.30;99.90
7784;DHT22;19359;51.402;6.778;2023-08-07T07:53:30;13.40;99.90
7784;DHT22;19359;51.402;6.778;2023-08-07T07:55:59;13.50;99.90
7784;DHT22;19359;51.402;6.778;2023-08-07T07:58:25;13.60;99.90
7784;DHT22;19359;51.402;6.778;2023-08-07T08:03:20;13.70;99.90
7784;DHT22;19359;51.402;6.778;2023-08-07T08:05:50;13.80;90.90
7784;DHT22;19359;51.402;6.778;2023-08-07T08:10:44;13.90;96.50
7784;DHT22;19359;51.402;6.778;2023-08-07T08:13:14;14.00;99.90
7784;DHT22;19359;51.402;6.778;2023-08-07T08:15:41;14.10;99.90
7784;DHT22;19359;51.402;6.778;2023-08-07T08:18:08;14.00;1.00
7784;DHT22;19359;51.402;6.778;2023-08-07T08:20:34;13.90;1.00
7784;DHT22;19359;51.402;6.778;2023-08-07T08:25:28;14.00;1.00
7784;DHT22;19359;51.402;6.778;2023-08-07T08:27:55;14.20;99.90
7784;DHT22;19359;51.402;6.778;2023-08-07T08:32:50;14.30;99.90
7784;DHT22;19359;51.402;6.778;2023-08-07T08:35:17;14.50;1.00
7784;DHT22;19359;51.402;6.778;2023-08-07T08:40:11;14.90;99.90
7784;DHT22;19359;51.402;6.778;2023-08-07T08:42:43;14.70;99.90
7784;DHT22;19359;51.402;6.778;2023-08-07T08:45:12;14.80;1.00
7784;DHT22;19359;51.402;6.778;2023-08-07T08:47:42;14.90;99.90
7784;DHT22;19359;51.402;6.778;2023-08-07T08:52:42;15.20;99.90
7784;DHT22;19359;51.402;6.778;2023-08-07T08:55:11;15.00;99.90
7784;DHT22;19359;51.402;6.778;2023-08-07T08:57:39;15.10;99.90
7784;DHT22;19359;51.402;6.778;2023-08-07T09:00:07;15.30;99.90
7784;DHT22;19359;51.402;6.778;2023-08-07T09:02:46;15.10;99.90
7784;DHT22;19359;51.402;6.778;2023-08-07T09:10:09;15.70;99.90
7784;DHT22;19359;51.402;6.778;2023-08-07T09:12:39;15.60;99.90
7784;DHT22;19359;51.402;6.778;2023-08-07T09:17:40;15.40;99.90
7784;DHT22;19359;51.402;6.778;2023-08-07T09:20:10;15.40;99.90
7784;DHT22;19359;51.402;6.778;2023-08-07T09:25:07;15.40;99.90
7784;DHT22;19359;51.402;6.778;2023-08-07T09:32:29;15.40;99.90
7784;DHT22;19359;51.402;6.778;2023-08-07T09:37:25;15.10;99.90
7784;DHT22;19359;51.402;6.778;2023-08-07T09:39:52;15.00;99.90
7784;DHT22;19359;51.402;6.778;2023-08-07T09:44:46;15.40;99.90
7784;DHT22;19359;51.402;6.778;2023-08-07T09:47:15;15.40;99.90
7784;DHT22;19359;51.402;6.778;2023-08-07T09:52:11;15.70;99.90
7784;DHT22;19359;51.402;6.778;2023-08-07T09:54:40;15.60;99.90
7784;DHT22;19359;51.402;6.778;2023-08-07T10:04:30;16.20;99.90
7784;DHT22;19359;51.402;6.778;2023-08-07T10:06:57;16.40;99.90
7784;DHT22;19359;51.402;6.778;2023-08-07T10:09:24;16.60;78.60
7784;DHT22;19359;51.402;6.778;2023-08-07T10:11:55;16.80;1.00
7784;DHT22;19359;51.402;6.778;2023-08-07T10:16:49;17.30;28.30
7784;DHT22;19359;51.402;6.778;2023-08-07T10:19:17;17.40;99.90
7784;DHT22;19359;51.402;6.778;2023-08-07T10:21:43;17.30;1.00
7784;DHT22;19359;51.402;6.778;2023-08-07T10:31:40;17.70;1.00
7784;DHT22;19359;51.402;6.778;2023-08-07T10:34:09;17.80;1.00
7784;DHT22;19359;51.402;6.778;2023-08-07T10:41:38;17.50;1.00
7784;DHT22;19359;51.402;6.778;2023-08-07T10:44:18;17.30;1.00
7784;DHT22;19359;51.402;6.778;2023-08-07T10:46:49;17.10;1.00
7784;DHT22;19359;51.402;6.778;2023-08-07T10:57:01;16.10;1.00
7784;DHT22;19359;51.402;6.778;2023-08-07T10:59:29;16.20;1.00
7784;DHT22;19359;51.402;6.778;2023-08-07T11:04:23;16.30;1.00
7784;DHT22;19359;51.402;6.778;2023-08-07T11:06:51;16.70;1.00
7784;DHT22;19359;51.402;6.778;2023-08-07T11:09:18;17.00;1.00
7784;DHT22;19359;51.402;6.778;2023-08-07T11:16:42;18.00;1.00
7784;DHT22;19359;51.402;6.778;2023-08-07T11:19:10;18.10;1.00
7784;DHT22;19359;51.402;6.778;2023-08-07T11:21:38;17.90;1.00
7784;DHT22;19359;51.402;6.778;2023-08-07T11:26:32;18.20;1.00
7784;DHT22;19359;51.402;6.778;2023-08-07T11:28:58;18.00;1.00
7784;DHT22;19359;51.402;6.778;2023-08-07T11:33:55;17.70;1.00
7784;DHT22;19359;51.402;6.778;2023-08-07T11:38:50;17.70;1.00
7784;DHT22;19359;51.402;6.778;2023-08-07T11:41:18;17.70;1.00
7784;DHT22;19359;51.402;6.778;2023-08-07T11:43:45;18.00;1.00
7784;DHT22;19359;51.402;6.778;2023-08-07T11:46:13;18.40;1.00
7784;DHT22;19359;51.402;6.778;2023-08-07T11:48:41;18.70;1.00
7784;DHT22;19359;51.402;6.778;2023-08-07T11:51:10;19.00;1.00
7784;DHT22;19359;51.402;6.778;2023-08-07T11:56:07;19.10;1.00
7784;DHT22;19359;51.402;6.778;2023-08-07T11:58:36;18.90;1.00
7784;DHT22;19359;51.402;6.778;2023-08-07T12:03:33;18.40;1.00
7784;DHT22;19359;51.402;6.778;2023-08-07T12:11:01;18.90;1.00
7784;DHT22;19359;51.402;6.778;2023-08-07T12:15:58;19.30;1.00
7784;DHT22;19359;51.402;6.778;2023-08-07T12:18:27;19.30;1.00
7784;DHT22;19359;51.402;6.778;2023-08-07T12:20:57;19.20;1.00
7784;DHT22;19359;51.402;6.778;2023-08-07T12:35:42;19.40;1.00
7784;DHT22;19359;51.402;6.778;2023-08-07T12:43:07;20.00;1.00
7784;DHT22;19359;51.402;6.778;2023-08-07T12:48:01;19.50;1.00
7784;DHT22;19359;51.402;6.778;2023-08-07T12:50:28;19.40;1.00
7784;DHT22;19359;51.402;6.778;2023-08-07T12:52:56;19.20;1.00
7784;DHT22;19359;51.402;6.778;2023-08-07T12:55:23;19.30;1.00
7784;DHT22;19359;51.402;6.778;2023-08-07T12:57:50;19.70;1.00
7784;DHT22;19359;51.402;6.778;2023-08-07T13:02:46;20.40;1.00
7784;DHT22;19359;51.402;6.778;2023-08-07T13:07:42;20.60;1.00
7784;DHT22;19359;51.402;6.778;2023-08-07T13:12:38;22.10;1.00
7784;DHT22;19359;51.402;6.778;2023-08-07T13:15:07;22.50;1.00
7784;DHT22;19359;51.402;6.778;2023-08-07T13:17:36;22.60;1.00
7784;DHT22;19359;51.402;6.778;2023-08-07T13:20:04;22.10;1.00
7784;DHT22;19359;51.402;6.778;2023-08-07T13:22:33;21.80;1.00
7784;DHT22;19359;51.402;6.778;2023-08-07T13:27:28;22.60;1.00
7784;DHT22;19359;51.402;6.778;2023-08-07T13:29:55;22.40;1.00
7784;DHT22;19359;51.402;6.778;2023-08-07T13:32:22;22.00;1.00
7784;DHT22;19359;51.402;6.778;2023-08-07T13:34:50;21.90;99.90
7784;DHT22;19359;51.402;6.778;2023-08-07T13:37:17;22.30;1.00
7784;DHT22;19359;51.402;6.778;2023-08-07T13:42:13;23.10;1.00
7784;DHT22;19359;51.402;6.778;2023-08-07T13:44:40;23.10;1.00
7784;DHT22;19359;51.402;6.778;2023-08-07T13:47:07;22.70;1.00
7784;DHT22;19359;51.402;6.778;2023-08-07T13:49:34;23.30;1.00
7784;DHT22;19359;51.402;6.778;2023-08-07T13:54:30;23.90;1.00
7784;DHT22;19359;51.402;6.778;2023-08-07T13:56:56;23.60;1.00
7784;DHT22;19359;51.402;6.778;2023-08-07T14:01:50;23.00;1.00
7784;DHT22;19359;51.402;6.778;2023-08-07T14:04:17;22.70;1.00
7784;DHT22;19359;51.402;6.778;2023-08-07T14:06:46;23.50;1.00
7784;DHT22;19359;51.402;6.778;2023-08-07T14:09:14;24.20;99.90
7784;DHT22;19359;51.402;6.778;2023-08-07T14:11:42;24.20;99.90
7784;DHT22;19359;51.402;6.778;2023-08-07T14:14:09;24.50;99.90
7784;DHT22;19359;51.402;6.778;2023-08-07T14:16:35;23.90;99.90
7784;DHT22;19359;51.402;6.778;2023-08-07T14:19:02;23.30;99.90
7784;DHT22;19359;51.402;6.778;2023-08-07T14:21:29;23.20;99.90
7784;DHT22;19359;51.402;6.778;2023-08-07T14:23:56;22.60;1.00
7784;DHT22;19359;51.402;6.778;2023-08-07T14:26:24;22.40;99.90
7784;DHT22;19359;51.402;6.778;2023-08-07T14:28:51;22.30;99.90
7784;DHT22;19359;51.402;6.778;2023-08-07T14:31:17;21.80;1.00
7784;DHT22;19359;51.402;6.778;2023-08-07T14:33:44;22.50;99.90
7784;DHT22;19359;51.402;6.778;2023-08-07T14:36:11;23.50;99.90
7784;DHT22;19359;51.402;6.778;2023-08-07T14:38:38;23.60;99.90
7784;DHT22;19359;51.402;6.778;2023-08-07T14:43:33;24.00;99.90
7784;DHT22;19359;51.402;6.778;2023-08-07T14:45:59;23.60;99.90
7784;DHT22;19359;51.402;6.778;2023-08-07T14:48:26;24.10;99.90
7784;DHT22;19359;51.402;6.778;2023-08-07T14:50:53;24.00;99.90
7784;DHT22;19359;51.402;6.778;2023-08-07T14:55:48;22.30;1.00
7784;DHT22;19359;51.402;6.778;2023-08-07T15:03:10;21.50;1.00
7784;DHT22;19359;51.402;6.778;2023-08-07T15:05:37;21.70;1.00
7784;DHT22;19359;51.402;6.778;2023-08-07T15:08:04;21.60;1.00
7784;DHT22;19359;51.402;6.778;2023-08-07T15:10:31;20.80;1.00
7784;DHT22;19359;51.402;6.778;2023-08-07T15:12:58;20.60;1.00
7784;DHT22;19359;51.402;6.778;2023-08-07T15:17:54;20.10;1.00
7784;DHT22;19359;51.402;6.778;2023-08-07T15:20:21;20.40;1.00
7784;DHT22;19359;51.402;6.778;2023-08-07T15:22:48;20.60;1.00
7784;DHT22;19359;51.402;6.778;2023-08-07T15:25:15;21.00;1.00
7784;DHT22;19359;51.402;6.778;2023-08-07T15:27:42;20.50;1.00
7784;DHT22;19359;51.402;6.778;2023-08-07T15:30:09;20.50;1.00
7784;DHT22;19359;51.402;6.778;2023-08-07T15:47:21;19.40;1.00
7784;DHT22;19359;51.402;6.778;2023-08-07T15:54:44;19.00;1.00
7784;DHT22;19359;51.402;6.778;2023-08-07T16:07:01;21.50;1.00
7784;DHT22;19359;51.402;6.778;2023-08-07T16:31:36;18.90;1.00
7784;DHT22;19359;51.402;6.778;2023-08-07T16:38:56;18.90;1.00
7784;DHT22;19359;51.402;6.778;2023-08-07T16:51:13;23.00;1.00
7784;DHT22;19359;51.402;6.778;2023-08-07T17:08:27;23.50;1.00
7784;DHT22;19359;51.402;6.778;2023-08-07T17:35:28;19.60;1.00
7784;DHT22;19359;51.402;6.778;2023-08-07T17:37:56;19.10;1.00
7784;DHT22;19359;51.402;6.778;2023-08-07T17:40:23;18.90;1.00
7784;DHT22;19359;51.402;6.778;2023-08-07T17:47:44;19.20;1.00
7784;DHT22;19359;51.402;6.778;2023-08-07T17:57:37;21.80;1.00
7784;DHT22;19359;51.402;6.778;2023-08-07T18:02:32;22.00;1.00
7784;DHT22;19359;51.402;6.778;2023-08-07T18:29:36;19.80;1.00
7784;DHT22;19359;51.402;6.778;2023-08-07T18:46:48;17.70;1.00
7784;DHT22;19359;51.402;6.778;2023-08-07T19:01:33;17.00;1.00
7784;DHT22;19359;51.402;6.778;2023-08-07T19:06:27;17.10;1.00
7784;DHT22;19359;51.402;6.778;2023-08-07T19:08:56;16.80;1.00
7784;DHT22;19359;51.402;6.778;2023-08-07T19:13:51;16.70;1.00
7784;DHT22;19359;51.402;6.778;2023-08-07T19:16:18;16.20;1.00
7784;DHT22;19359;51.402;6.778;2023-08-07T19:18:48;16.40;1.00
7784;DHT22;19359;51.402;6.778;2023-08-07T19:23:42;16.60;1.00
7784;DHT22;19359;51.402;6.778;2023-08-07T19:33:30;16.50;1.00
7784;DHT22;19359;51.402;6.778;2023-08-07T19:35:58;16.40;1.00
7784;DHT22;19359;51.402;6.778;2023-08-07T19:38:25;16.30;1.00
7784;DHT22;19359;51.402;6.778;2023-08-07T19:43:19;16.50;1.00
7784;DHT22;19359;51.402;6.778;2023-08-07T19:45:46;16.50;1.00
7784;DHT22;19359;51.402;6.778;2023-08-07T19:48:12;16.40;1.00
7784;DHT22;19359;51.402;6.778;2023-08-07T19:55:35;16.30;1.00
7784;DHT22;19359;51.402;6.778;2023-08-07T19:58:01;16.20;1.00
7784;DHT22;19359;51.402;6.778;2023-08-07T20:00:29;16.00;1.00
7784;DHT22;19359;51.402;6.778;2023-08-07T20:02:56;16.00;1.00
7784;DHT22;19359;51.402;6.778;2023-08-07T20:05:23;15.80;1.00
7784;DHT22;19359;51.402;6.778;2023-08-07T20:10:19;15.60;1.00
7784;DHT22;19359;51.402;6.778;2023-08-07T20:15:16;15.30;1.00
7784;DHT22;19359;51.402;6.778;2023-08-07T20:20:11;15.00;1.00
7784;DHT22;19359;51.402;6.778;2023-08-07T20:25:07;15.00;1.00
7784;DHT22;19359;51.402;6.778;2023-08-07T20:27:35;14.80;1.00
7784;DHT22;19359;51.402;6.778;2023-08-07T20:30:02;14.80;1.00
7784;DHT22;19359;51.402;6.778;2023-08-07T20:32:29;14.70;1.00
7784;DHT22;19359;51.402;6.778;2023-08-07T20:34:56;14.70;1.00
7784;DHT22;19359;51.402;6.778;2023-08-07T20:49:41;14.60;1.00
7784;DHT22;19359;51.402;6.778;2023-08-07T20:52:08;14.70;1.00
7784;DHT22;19359;51.402;6.778;2023-08-07T20:54:34;14.50;1.00
7784;DHT22;19359;51.402;6.778;2023-08-07T20:57:01;14.10;1.00
7784;DHT22;19359;51.402;6.778;2023-08-07T20:59:28;14.30;1.00
7784;DHT22;19359;51.402;6.778;2023-08-07T21:01:56;14.40;1.00
7784;DHT22;19359;51.402;6.778;2023-08-07T21:04:23;14.20;1.00
7784;DHT22;19359;51.402;6.778;2023-08-07T21:06:51;14.40;1.00
7784;DHT22;19359;51.402;6.778;2023-08-07T21:09:18;14.50;1.00
7784;DHT22;19359;51.402;6.778;2023-08-07T21:14:12;14.30;1.00
7784;DHT22;19359;51.402;6.778;2023-08-07T21:16:39;14.30;1.00
7784;DHT22;19359;51.402;6.778;2023-08-07T21:19:10;14.40;1.00
7784;DHT22;19359;51.402;6.778;2023-08-07T21:21:37;14.50;1.00
7784;DHT22;19359;51.402;6.778;2023-08-07T21:26:36;14.70;1.00
7784;DHT22;19359;51.402;6.778;2023-08-07T21:29:03;14.80;1.00
7784;DHT22;19359;51.402;6.778;2023-08-07T21:31:30;14.90;1.00
7784;DHT22;19359;51.402;6.778;2023-08-07T21:33:57;14.90;1.00
7784;DHT22;19359;51.402;6.778;2023-08-07T21:36:25;15.00;1.00
7784;DHT22;19359;51.402;6.778;2023-08-07T21:38:52;15.10;1.00
7784;DHT22;19359;51.402;6.778;2023-08-07T21:41:19;15.20;1.00
7784;DHT22;19359;51.402;6.778;2023-08-07T21:43:46;15.30;1.00
7784;DHT22;19359;51.402;6.778;2023-08-07T21:46:12;15.40;1.00
7784;DHT22;19359;51.402;6.778;2023-08-07T21:48:39;15.50;1.00
7784;DHT22;19359;51.402;6.778;2023-08-07T21:51:06;15.40;1.00
7784;DHT22;19359;51.402;6.778;2023-08-07T21:56:01;15.50;1.00
7784;DHT22;19359;51.402;6.778;2023-08-07T21:58:28;15.60;1.00
7784;DHT22;19359;51.402;6.778;2023-08-07T22:00:54;15.50;1.00
7784;DHT22;19359;51.402;6.778;2023-08-07T22:03:22;15.60;1.00
7784;DHT22;19359;51.402;6.778;2023-08-07T22:05:50;15.50;1.00
7784;DHT22;19359;51.402;6.778;2023-08-07T22:08:17;15.50;1.00
7784;DHT22;19359;51.402;6.778;2023-08-07T22:10:45;15.70;1.00
7784;DHT22;19359;51.402;6.778;2023-08-07T22:13:12;15.70;1.00
7784;DHT22;19359;51.402;6.778;2023-08-07T22:15:38;15.70;1.00
7784;DHT22;19359;51.402;6.778;2023-08-07T22:18:05;15.80;1.00
7784;DHT22;19359;51.402;6.778;2023-08-07T22:20:32;15.70;1.00
7784;DHT22;19359;51.402;6.778;2023-08-07T22:22:59;15.70;1.00
7784;DHT22;19359;51.402;6.778;2023-08-07T22:25:25;15.60;1.00
7784;DHT22;19359;51.402;6.778;2023-08-07T22:27:54;15.50;1.00
7784;DHT22;19359;51.402;6.778;2023-08-07T22:30:20;15.70;1.00
7784;DHT22;19359;51.402;6.778;2023-08-07T22:32:48;15.70;1.00
7784;DHT22;19359;51.402;6.778;2023-08-07T22:35:16;15.80;1.00
7784;DHT22;19359;51.402;6.778;2023-08-07T22:40:10;15.70;1.00
7784;DHT22;19359;51.402;6.778;2023-08-07T22:50:00;15.70;1.00
7784;DHT22;19359;51.402;6.778;2023-08-07T22:52:27;15.70;1.00
7784;DHT22;19359;51.402;6.778;2023-08-07T22:54:54;15.70;1.00
7784;DHT22;19359;51.402;6.778;2023-08-07T22:57:21;15.50;1.00
7784;DHT22;19359;51.402;6.778;2023-08-07T22:59:47;15.70;1.00
7784;DHT22;19359;51.402;6.778;2023-08-07T23:02:17;15.70;1.00
7784;DHT22;19359;51.402;6.778;2023-08-07T23:04:44;15.80;1.00
7784;DHT22;19359;51.402;6.778;2023-08-07T23:07:11;15.70;1.00
7784;DHT22;19359;51.402;6.778;2023-08-07T23:09:38;15.60;1.00
7784;DHT22;19359;51.402;6.778;2023-08-07T23:12:05;15.60;1.00
7784;DHT22;19359;51.402;6.778;2023-08-07T23:14:33;15.70;1.00
7784;DHT22;19359;51.402;6.778;2023-08-07T23:16:59;15.60;1.00
7784;DHT22;19359;51.402;6.778;2023-08-07T23:19:27;15.50;1.00
7784;DHT22;19359;51.402;6.778;2023-08-07T23:21:54;15.50;1.00
7784;DHT22;19359;51.402;6.778;2023-08-07T23:24:21;15.40;1.00
7784;DHT22;19359;51.402;6.778;2023-08-07T23:26:48;15.20;1.00
7784;DHT22;19359;51.402;6.778;2023-08-07T23:29:15;15.00;1.00
7784;DHT22;19359;51.402;6.778;2023-08-07T23:34:09;14.80;1.00
7784;DHT22;19359;51.402;6.778;2023-08-07T23:36:37;14.90;1.00
7784;DHT22;19359;51.402;6.778;2023-08-07T23:39:04;14.90;1.00
7784;DHT22;19359;51.402;6.778;2023-08-07T23:41:31;14.80;1.00
7784;DHT22;19359;51.402;6.778;2023-08-07T23:46:25;14.60;1.00
7784;DHT22;19359;51.402;6.778;2023-08-07T23:48:52;14.70;1.00
7784;DHT22;19359;51.402;6.778;2023-08-07T23:51:19;14.70;1.00
7784;DHT22;19359;51.402;6.778;2023-08-07T23:53:47;14.60;1.00
7784;DHT22;19359;51.402;6.778;2023-08-07T23:56:14;14.60;1.00
7784;DHT22;19359;51.402;6.778;2023-08-07T23:58:40;14.60;1.00
